메인 페이지
METAR-TAF:

METAR-TAF

공항 :

옐로나이프, 노스웨스트 준주, 캐나다

위도: 62-28N, 경도: 114-27W, 고도: 205m

현재 날씨관측

예보는 17분 전, 19:00시(UTC)에 발표되었습니다.
동북동6kt
온도 -13°C
습도 85%
기압 1002 hPa
시정: 4.8km
고도 1200ft 상공 구름 많음
고도 2200ft 상공 흐림
약한눈

METAR: CYZF 191900Z 06006KT 3SM -SN BKN012 OVC022 M13/M15 A2960 RMK SC5SC3 SLP045

시각: 12:17 (19:17 UTC)

예보

예보는 1 시간 6분 전, 18:11시(UTC)에 발표되었습니다.
예보 대상 시간: 19일 18시부터 20일 18시까지 (UTC)
동북동5kt
시정: 10km
고도 1200ft 상공 구름 보통
고도 2500ft 상공 흐림
약한눈
일시적
19일 18시부터 20일 10시까지 (UTC)
시정: 6.4km
고도 1200ft 상공 구름 많음
고도 2500ft 상공 흐림
약한눈
20일 1000시부터 (UTC)
동북동8kt
시정: 6.4km
고도 1500ft 상공 흐림
약한눈
확률 30%
20일 10시부터 20일 16시까지 (UTC)
고도 800ft 상공
약한눈
20일 1600시부터 (UTC)
동북동8kt
시정: 10km
고도 2500ft 상공 구름 보통
약한눈

TAF: CYZF 191811Z 1918/2018 06005KT P6SM -SN SCT012 OVC025 TEMPO 1918/2010 4SM -SN BKN012 OVC025 FM201000 06008KT 4SM -SN OVC015 PROB30 2010/2016 11/2SM -SN VV008 FM201600 06008KT P6SM -SN SCT025 RMK NXT FCST BY 200000Z

4,000개 이상의 공항 관측 자료 및 예보 (METAR 및 TAF 보고).

지도상에서 검색 가능한 기상관측소가 노란 점과 빨간 점으로 표시되어 있습니다.

기상관측소 명을 보려면 표시 위로 마우스를 이동하세요.

날씨 관측과 예보를 보려면 클릭하세요.

지도 변경 : 확대하려면 엑스 표시가 있는 녹색 버튼, 축소하려면 빼기 표시가 있는 녹색 버튼, 다음 페이지의 지도를 보려면 녹색 화살표를 클릭하세요.


METAR-TAF: